Airfield :
LOGIN :

Register | Disclaimer

   EN    FR    IT 

 










Legend :    VFR   Marginal VFR   IFR   Intensive IFR   Very Intensive IFR
Visi :
Ceiling :
>= 8 km
>= 3000ft
5 to 8 km
1000 to 3000 ft
1500m to 5 km
500 to 1000 ft
800 to 1500m
200 to 500 ft
< 800m
< 200 ft
Symbols :   Thunderstorms  Fog  Heavy snow  Heavy precipitations  Wind > 20 kt
SIGMETs :     Misc.  Thunderstorms  Icing  Turbulence  Mountain Waves  Volcanic Ashes






- Airport Elevation : 289 ft
- IATA code : ZAD


LDZD - Zadar

CURRENT METAR :
  • 110400Z 11009KT 080V140 9999 BKN070 11/03 Q1020 NOSIG

EXPIRED METARs :
  • 110330Z 10008KT 9999 BKN070 11/03 Q1020
  • 110300Z 09008KT 9999 BKN070 10/03 Q1020
  • 110230Z 11005KT 090V150 CAVOK 10/03 Q1020
  • 110200Z 11010KT CAVOK 10/02 Q1020

TAF TAF LDZD
Valid from the 11 at 00:00 until the 12 at 00:00 UTC


102325Z 1100/1200 11006KT 9999 FEW035 TX15/1112Z TN09/1100Z
BECMG 1107/1109 14015KT
PROB30
TEMPO 1109/1115 14018G30KT
BECMG 1118/1120 14007KT



MET'MAP, your aeronautical weather chart ! - Copyright ORBIFLY December 2007 - Disclaimer

ORBIFLY MET'MAP TEAM :

Programming & Development : Alexandra Zaïnal
Concept & original design : Baudouin d'Aumeries
Assistance for programming : Marc-Olivier Méhu
Technical & hardware support : Manuel Goepfert

Contact : metmap@orbifly.com




SOURCES & CREDITS :

   NOAA